sensor_id;sensor_type;location;lat;lon;timestamp;temperature;humidity
9389;DHT22;4734;52.778;6.798;2023-10-09T00:01:01;15.00;99.90
9389;DHT22;4734;52.778;6.798;2023-10-09T00:03:48;15.00;99.90
9389;DHT22;4734;52.778;6.798;2023-10-09T00:06:39;15.00;99.90
9389;DHT22;4734;52.778;6.798;2023-10-09T00:09:26;15.00;99.90
9389;DHT22;4734;52.778;6.798;2023-10-09T00:12:16;15.00;99.90
9389;DHT22;4734;52.778;6.798;2023-10-09T00:15:07;15.00;99.90
9389;DHT22;4734;52.778;6.798;2023-10-09T00:17:56;15.00;99.90
9389;DHT22;4734;52.778;6.798;2023-10-09T00:20:42;15.00;99.90
9389;DHT22;4734;52.778;6.798;2023-10-09T00:23:29;14.90;99.90
9389;DHT22;4734;52.778;6.798;2023-10-09T00:26:18;14.90;99.90
9389;DHT22;4734;52.778;6.798;2023-10-09T00:29:05;15.00;99.90
9389;DHT22;4734;52.778;6.798;2023-10-09T00:31:51;14.90;99.90
9389;DHT22;4734;52.778;6.798;2023-10-09T00:34:39;14.90;99.90
9389;DHT22;4734;52.778;6.798;2023-10-09T00:37:25;14.90;99.90
9389;DHT22;4734;52.778;6.798;2023-10-09T00:40:19;14.90;99.90
9389;DHT22;4734;52.778;6.798;2023-10-09T00:43:12;14.90;99.90
9389;DHT22;4734;52.778;6.798;2023-10-09T00:45:59;14.90;99.90
9389;DHT22;4734;52.778;6.798;2023-10-09T00:48:55;14.90;99.90
9389;DHT22;4734;52.778;6.798;2023-10-09T00:51:45;14.90;99.90
9389;DHT22;4734;52.778;6.798;2023-10-09T00:54:40;14.80;99.90
9389;DHT22;4734;52.778;6.798;2023-10-09T00:57:31;14.80;99.90
9389;DHT22;4734;52.778;6.798;2023-10-09T01:00:25;14.80;99.90
9389;DHT22;4734;52.778;6.798;2023-10-09T01:03:29;14.80;99.90
9389;DHT22;4734;52.778;6.798;2023-10-09T01:06:18;14.80;99.90
9389;DHT22;4734;52.778;6.798;2023-10-09T01:09:05;14.80;99.90
9389;DHT22;4734;52.778;6.798;2023-10-09T01:11:54;14.80;99.90
9389;DHT22;4734;52.778;6.798;2023-10-09T01:14:49;14.80;99.90
9389;DHT22;4734;52.778;6.798;2023-10-09T01:17:39;14.80;99.90
9389;DHT22;4734;52.778;6.798;2023-10-09T01:20:29;14.80;99.90
9389;DHT22;4734;52.778;6.798;2023-10-09T01:23:18;14.80;99.90
9389;DHT22;4734;52.778;6.798;2023-10-09T01:26:03;14.80;99.90
9389;DHT22;4734;52.778;6.798;2023-10-09T01:28:49;14.80;99.90
9389;DHT22;4734;52.778;6.798;2023-10-09T01:31:34;14.80;99.90
9389;DHT22;4734;52.778;6.798;2023-10-09T01:34:22;14.80;99.90
9389;DHT22;4734;52.778;6.798;2023-10-09T01:37:22;14.70;99.90
9389;DHT22;4734;52.778;6.798;2023-10-09T01:40:14;14.70;99.90
9389;DHT22;4734;52.778;6.798;2023-10-09T01:43:09;14.70;99.90
9389;DHT22;4734;52.778;6.798;2023-10-09T01:45:55;14.70;99.90
9389;DHT22;4734;52.778;6.798;2023-10-09T01:48:40;14.70;99.90
9389;DHT22;4734;52.778;6.798;2023-10-09T01:51:30;14.70;99.90
9389;DHT22;4734;52.778;6.798;2023-10-09T01:54:18;14.70;99.90
9389;DHT22;4734;52.778;6.798;2023-10-09T01:57:20;14.70;99.90
9389;DHT22;4734;52.778;6.798;2023-10-09T02:00:07;14.70;99.90
9389;DHT22;4734;52.778;6.798;2023-10-09T02:02:54;14.70;99.90
9389;DHT22;4734;52.778;6.798;2023-10-09T02:05:41;14.70;99.90
9389;DHT22;4734;52.778;6.798;2023-10-09T02:08:27;14.70;99.90
9389;DHT22;4734;52.778;6.798;2023-10-09T02:11:20;14.70;99.90
9389;DHT22;4734;52.778;6.798;2023-10-09T02:14:21;14.60;99.90
9389;DHT22;4734;52.778;6.798;2023-10-09T02:17:08;14.60;99.90
9389;DHT22;4734;52.778;6.798;2023-10-09T02:20:02;14.60;99.90
9389;DHT22;4734;52.778;6.798;2023-10-09T02:23:01;14.60;99.90
9389;DHT22;4734;52.778;6.798;2023-10-09T02:25:57;14.60;99.90
9389;DHT22;4734;52.778;6.798;2023-10-09T02:28:44;14.60;99.90
9389;DHT22;4734;52.778;6.798;2023-10-09T02:31:38;14.60;99.90
9389;DHT22;4734;52.778;6.798;2023-10-09T02:34:24;14.60;99.90
9389;DHT22;4734;52.778;6.798;2023-10-09T02:37:11;14.60;99.90
9389;DHT22;4734;52.778;6.798;2023-10-09T02:39:57;14.60;99.90
9389;DHT22;4734;52.778;6.798;2023-10-09T02:42:47;14.60;99.90
9389;DHT22;4734;52.778;6.798;2023-10-09T02:45:34;14.60;99.90
9389;DHT22;4734;52.778;6.798;2023-10-09T02:48:24;14.50;99.90
9389;DHT22;4734;52.778;6.798;2023-10-09T02:51:12;14.50;99.90
9389;DHT22;4734;52.778;6.798;2023-10-09T02:54:02;14.50;99.90
9389;DHT22;4734;52.778;6.798;2023-10-09T02:57:02;14.50;99.90
9389;DHT22;4734;52.778;6.798;2023-10-09T02:59:52;14.60;99.90
9389;DHT22;4734;52.778;6.798;2023-10-09T03:02:38;14.50;99.90
9389;DHT22;4734;52.778;6.798;2023-10-09T03:05:25;14.50;99.90
9389;DHT22;4734;52.778;6.798;2023-10-09T03:08:14;14.50;99.90
9389;DHT22;4734;52.778;6.798;2023-10-09T03:11:00;14.50;99.90
9389;DHT22;4734;52.778;6.798;2023-10-09T03:13:46;14.50;99.90
9389;DHT22;4734;52.778;6.798;2023-10-09T03:16:31;14.50;99.90
9389;DHT22;4734;52.778;6.798;2023-10-09T03:19:17;14.50;99.90
9389;DHT22;4734;52.778;6.798;2023-10-09T03:22:05;14.50;99.90
9389;DHT22;4734;52.778;6.798;2023-10-09T03:24:53;14.50;99.90
9389;DHT22;4734;52.778;6.798;2023-10-09T03:27:39;14.50;99.90
9389;DHT22;4734;52.778;6.798;2023-10-09T03:30:29;14.50;99.90
9389;DHT22;4734;52.778;6.798;2023-10-09T03:33:17;14.50;99.90
9389;DHT22;4734;52.778;6.798;2023-10-09T03:36:03;14.50;99.90
9389;DHT22;4734;52.778;6.798;2023-10-09T03:38:52;14.50;99.90
9389;DHT22;4734;52.778;6.798;2023-10-09T03:41:42;14.50;99.90
9389;DHT22;4734;52.778;6.798;2023-10-09T03:44:28;14.50;99.90
9389;DHT22;4734;52.778;6.798;2023-10-09T03:47:14;14.50;99.90
9389;DHT22;4734;52.778;6.798;2023-10-09T03:50:00;14.50;99.90
9389;DHT22;4734;52.778;6.798;2023-10-09T03:53:05;14.50;99.90
9389;DHT22;4734;52.778;6.798;2023-10-09T03:55:57;14.60;99.90
9389;DHT22;4734;52.778;6.798;2023-10-09T03:58:45;14.60;99.90
9389;DHT22;4734;52.778;6.798;2023-10-09T04:01:30;14.50;99.90
9389;DHT22;4734;52.778;6.798;2023-10-09T04:04:22;14.60;99.90
9389;DHT22;4734;52.778;6.798;2023-10-09T04:07:07;14.60;99.90
9389;DHT22;4734;52.778;6.798;2023-10-09T04:09:53;14.60;99.90
9389;DHT22;4734;52.778;6.798;2023-10-09T04:13:00;14.60;99.90
9389;DHT22;4734;52.778;6.798;2023-10-09T04:15:47;14.60;99.90
9389;DHT22;4734;52.778;6.798;2023-10-09T04:18:33;14.60;99.90
9389;DHT22;4734;52.778;6.798;2023-10-09T04:21:22;14.60;99.90
9389;DHT22;4734;52.778;6.798;2023-10-09T04:24:18;14.60;99.90
9389;DHT22;4734;52.778;6.798;2023-10-09T04:27:19;14.60;99.90
9389;DHT22;4734;52.778;6.798;2023-10-09T04:30:12;14.60;99.90
9389;DHT22;4734;52.778;6.798;2023-10-09T04:32:59;14.60;99.90
9389;DHT22;4734;52.778;6.798;2023-10-09T04:35:55;14.70;99.90
9389;DHT22;4734;52.778;6.798;2023-10-09T04:39:06;14.70;99.90
9389;DHT22;4734;52.778;6.798;2023-10-09T04:42:19;14.70;99.90
9389;DHT22;4734;52.778;6.798;2023-10-09T04:45:12;14.70;99.90
9389;DHT22;4734;52.778;6.798;2023-10-09T04:48:09;14.70;99.90
9389;DHT22;4734;52.778;6.798;2023-10-09T04:50:55;14.70;99.90
9389;DHT22;4734;52.778;6.798;2023-10-09T04:53:58;14.70;99.90
9389;DHT22;4734;52.778;6.798;2023-10-09T04:56:57;14.70;99.90
9389;DHT22;4734;52.778;6.798;2023-10-09T04:59:44;14.70;99.90
9389;DHT22;4734;52.778;6.798;2023-10-09T05:02:34;14.70;99.90
9389;DHT22;4734;52.778;6.798;2023-10-09T05:05:23;14.80;99.90
9389;DHT22;4734;52.778;6.798;2023-10-09T05:08:23;14.80;99.90
9389;DHT22;4734;52.778;6.798;2023-10-09T05:11:12;14.80;99.90
9389;DHT22;4734;52.778;6.798;2023-10-09T05:14:19;14.80;99.90
9389;DHT22;4734;52.778;6.798;2023-10-09T05:17:11;14.80;99.90
9389;DHT22;4734;52.778;6.798;2023-10-09T05:20:03;14.80;99.90
9389;DHT22;4734;52.778;6.798;2023-10-09T05:23:07;14.80;99.90
9389;DHT22;4734;52.778;6.798;2023-10-09T05:26:11;14.90;99.90
9389;DHT22;4734;52.778;6.798;2023-10-09T05:29:23;14.90;99.90
9389;DHT22;4734;52.778;6.798;2023-10-09T05:32:33;14.90;99.90
9389;DHT22;4734;52.778;6.798;2023-10-09T05:35:33;14.90;99.90
9389;DHT22;4734;52.778;6.798;2023-10-09T05:38:25;14.90;99.90
9389;DHT22;4734;52.778;6.798;2023-10-09T05:41:10;14.90;99.90
9389;DHT22;4734;52.778;6.798;2023-10-09T05:44:10;14.90;99.90
9389;DHT22;4734;52.778;6.798;2023-10-09T05:47:13;14.90;99.90
9389;DHT22;4734;52.778;6.798;2023-10-09T05:50:15;14.90;99.90
9389;DHT22;4734;52.778;6.798;2023-10-09T05:53:19;15.00;99.90
9389;DHT22;4734;52.778;6.798;2023-10-09T05:56:19;15.00;99.90
9389;DHT22;4734;52.778;6.798;2023-10-09T05:59:22;15.00;99.90
9389;DHT22;4734;52.778;6.798;2023-10-09T06:02:26;15.00;99.90
9389;DHT22;4734;52.778;6.798;2023-10-09T06:05:29;15.10;99.90
9389;DHT22;4734;52.778;6.798;2023-10-09T06:08:38;15.10;99.90
9389;DHT22;4734;52.778;6.798;2023-10-09T06:11:52;15.10;99.90
9389;DHT22;4734;52.778;6.798;2023-10-09T06:14:41;15.10;99.90
9389;DHT22;4734;52.778;6.798;2023-10-09T06:17:41;15.10;99.90
9389;DHT22;4734;52.778;6.798;2023-10-09T06:20:27;15.20;99.90
9389;DHT22;4734;52.778;6.798;2023-10-09T06:23:46;15.10;99.90
9389;DHT22;4734;52.778;6.798;2023-10-09T06:26:46;15.20;99.90
9389;DHT22;4734;52.778;6.798;2023-10-09T06:29:52;15.20;99.90
9389;DHT22;4734;52.778;6.798;2023-10-09T06:32:58;15.20;99.90
9389;DHT22;4734;52.778;6.798;2023-10-09T06:35:48;15.20;99.90
9389;DHT22;4734;52.778;6.798;2023-10-09T06:38:40;15.30;99.90
9389;DHT22;4734;52.778;6.798;2023-10-09T06:41:57;15.30;99.90
9389;DHT22;4734;52.778;6.798;2023-10-09T06:45:11;15.30;99.90
9389;DHT22;4734;52.778;6.798;2023-10-09T06:48:00;15.30;99.90
9389;DHT22;4734;52.778;6.798;2023-10-09T06:50:54;15.30;99.90
9389;DHT22;4734;52.778;6.798;2023-10-09T06:53:48;15.30;99.90
9389;DHT22;4734;52.778;6.798;2023-10-09T06:56:50;15.40;99.90
9389;DHT22;4734;52.778;6.798;2023-10-09T06:59:55;15.40;99.90
9389;DHT22;4734;52.778;6.798;2023-10-09T07:02:58;15.40;99.90
9389;DHT22;4734;52.778;6.798;2023-10-09T07:06:03;15.40;99.90
9389;DHT22;4734;52.778;6.798;2023-10-09T07:08:54;15.40;99.90
9389;DHT22;4734;52.778;6.798;2023-10-09T07:12:00;15.50;99.90
9389;DHT22;4734;52.778;6.798;2023-10-09T07:14:47;15.50;99.90
9389;DHT22;4734;52.778;6.798;2023-10-09T07:17:52;15.50;99.90
9389;DHT22;4734;52.778;6.798;2023-10-09T07:20:39;15.50;99.90
9389;DHT22;4734;52.778;6.798;2023-10-09T07:23:43;15.50;99.90
9389;DHT22;4734;52.778;6.798;2023-10-09T07:26:34;15.60;99.90
9389;DHT22;4734;52.778;6.798;2023-10-09T07:29:22;15.60;99.90
9389;DHT22;4734;52.778;6.798;2023-10-09T07:32:07;15.60;99.90
9389;DHT22;4734;52.778;6.798;2023-10-09T07:34:58;15.60;99.90
9389;DHT22;4734;52.778;6.798;2023-10-09T07:37:44;15.60;99.90
9389;DHT22;4734;52.778;6.798;2023-10-09T07:40:35;15.60;99.90
9389;DHT22;4734;52.778;6.798;2023-10-09T07:43:39;15.70;99.90
9389;DHT22;4734;52.778;6.798;2023-10-09T07:46:29;15.70;99.90
9389;DHT22;4734;52.778;6.798;2023-10-09T07:49:20;15.70;99.90
9389;DHT22;4734;52.778;6.798;2023-10-09T07:52:11;15.80;99.90
9389;DHT22;4734;52.778;6.798;2023-10-09T07:54:56;15.80;99.90
9389;DHT22;4734;52.778;6.798;2023-10-09T07:57:50;15.80;99.90
9389;DHT22;4734;52.778;6.798;2023-10-09T08:00:38;15.80;99.90
9389;DHT22;4734;52.778;6.798;2023-10-09T08:03:49;15.80;99.90
9389;DHT22;4734;52.778;6.798;2023-10-09T08:06:46;15.90;99.90
9389;DHT22;4734;52.778;6.798;2023-10-09T08:09:33;15.90;99.90
9389;DHT22;4734;52.778;6.798;2023-10-09T08:12:32;15.90;99.90
9389;DHT22;4734;52.778;6.798;2023-10-09T08:15:38;15.90;99.90
9389;DHT22;4734;52.778;6.798;2023-10-09T08:18:35;15.90;99.90
9389;DHT22;4734;52.778;6.798;2023-10-09T08:21:29;16.00;99.90
9389;DHT22;4734;52.778;6.798;2023-10-09T08:24:31;16.00;99.90
9389;DHT22;4734;52.778;6.798;2023-10-09T08:27:28;16.00;99.90
9389;DHT22;4734;52.778;6.798;2023-10-09T08:30:31;16.00;99.90
9389;DHT22;4734;52.778;6.798;2023-10-09T08:33:40;16.00;99.90
9389;DHT22;4734;52.778;6.798;2023-10-09T08:36:28;16.10;99.90
9389;DHT22;4734;52.778;6.798;2023-10-09T08:39:13;16.10;99.90
9389;DHT22;4734;52.778;6.798;2023-10-09T08:42:03;16.10;99.90
9389;DHT22;4734;52.778;6.798;2023-10-09T08:44:54;16.20;99.90
9389;DHT22;4734;52.778;6.798;2023-10-09T08:47:44;16.20;99.90
9389;DHT22;4734;52.778;6.798;2023-10-09T08:50:34;16.20;99.90
9389;DHT22;4734;52.778;6.798;2023-10-09T08:53:22;16.20;99.90
9389;DHT22;4734;52.778;6.798;2023-10-09T08:56:09;16.20;99.90
9389;DHT22;4734;52.778;6.798;2023-10-09T08:58:56;16.20;99.90
9389;DHT22;4734;52.778;6.798;2023-10-09T09:01:43;16.30;99.90
9389;DHT22;4734;52.778;6.798;2023-10-09T09:04:36;16.30;99.90
9389;DHT22;4734;52.778;6.798;2023-10-09T09:07:25;16.30;99.90
9389;DHT22;4734;52.778;6.798;2023-10-09T09:10:13;16.30;99.90
9389;DHT22;4734;52.778;6.798;2023-10-09T09:13:03;16.30;99.90
9389;DHT22;4734;52.778;6.798;2023-10-09T09:15:50;16.40;99.90
9389;DHT22;4734;52.778;6.798;2023-10-09T09:18:49;16.40;99.90
9389;DHT22;4734;52.778;6.798;2023-10-09T09:21:38;16.40;99.90
9389;DHT22;4734;52.778;6.798;2023-10-09T09:24:25;16.40;99.90
9389;DHT22;4734;52.778;6.798;2023-10-09T09:27:17;16.40;99.90
9389;DHT22;4734;52.778;6.798;2023-10-09T09:30:05;16.40;99.90
9389;DHT22;4734;52.778;6.798;2023-10-09T09:32:52;16.50;99.90
9389;DHT22;4734;52.778;6.798;2023-10-09T09:36:00;16.50;99.90
9389;DHT22;4734;52.778;6.798;2023-10-09T09:38:48;16.50;99.90
9389;DHT22;4734;52.778;6.798;2023-10-09T09:41:35;16.50;99.90
9389;DHT22;4734;52.778;6.798;2023-10-09T09:44:24;16.50;99.90
9389;DHT22;4734;52.778;6.798;2023-10-09T09:47:15;16.50;99.90
9389;DHT22;4734;52.778;6.798;2023-10-09T09:50:08;16.60;99.90
9389;DHT22;4734;52.778;6.798;2023-10-09T09:52:59;16.50;99.90
9389;DHT22;4734;52.778;6.798;2023-10-09T09:55:50;16.60;99.90
9389;DHT22;4734;52.778;6.798;2023-10-09T09:58:41;16.60;99.90
9389;DHT22;4734;52.778;6.798;2023-10-09T10:01:30;16.60;99.90
9389;DHT22;4734;52.778;6.798;2023-10-09T10:04:20;16.60;99.90
9389;DHT22;4734;52.778;6.798;2023-10-09T10:07:07;16.60;99.90
9389;DHT22;4734;52.778;6.798;2023-10-09T10:09:55;16.60;99.90
9389;DHT22;4734;52.778;6.798;2023-10-09T10:12:51;16.60;99.90
9389;DHT22;4734;52.778;6.798;2023-10-09T10:16:04;16.70;99.90
9389;DHT22;4734;52.778;6.798;2023-10-09T10:18:57;16.70;99.90
9389;DHT22;4734;52.778;6.798;2023-10-09T10:21:51;16.70;99.90
9389;DHT22;4734;52.778;6.798;2023-10-09T10:24:41;16.70;99.90
9389;DHT22;4734;52.778;6.798;2023-10-09T10:28:20;16.80;99.90
9389;DHT22;4734;52.778;6.798;2023-10-09T10:31:51;16.80;99.90
9389;DHT22;4734;52.778;6.798;2023-10-09T10:34:52;16.80;99.90
9389;DHT22;4734;52.778;6.798;2023-10-09T10:37:40;16.90;99.90
9389;DHT22;4734;52.778;6.798;2023-10-09T10:40:34;16.90;99.90
9389;DHT22;4734;52.778;6.798;2023-10-09T10:43:26;16.90;99.90
9389;DHT22;4734;52.778;6.798;2023-10-09T10:46:30;17.00;99.90
9389;DHT22;4734;52.778;6.798;2023-10-09T10:49:19;17.00;99.90
9389;DHT22;4734;52.778;6.798;2023-10-09T10:52:20;17.00;99.90
9389;DHT22;4734;52.778;6.798;2023-10-09T10:55:10;17.00;99.90
9389;DHT22;4734;52.778;6.798;2023-10-09T10:58:17;17.10;99.90
9389;DHT22;4734;52.778;6.798;2023-10-09T11:01:09;17.10;99.90
9389;DHT22;4734;52.778;6.798;2023-10-09T11:03:56;17.20;99.90
9389;DHT22;4734;52.778;6.798;2023-10-09T11:06:43;17.20;99.90
9389;DHT22;4734;52.778;6.798;2023-10-09T11:09:42;17.20;99.90
9389;DHT22;4734;52.778;6.798;2023-10-09T11:12:43;17.20;99.90
9389;DHT22;4734;52.778;6.798;2023-10-09T11:15:50;17.30;99.90
9389;DHT22;4734;52.778;6.798;2023-10-09T11:19:02;17.30;99.90
9389;DHT22;4734;52.778;6.798;2023-10-09T11:21:59;17.30;99.90
9389;DHT22;4734;52.778;6.798;2023-10-09T11:25:05;17.30;99.90
9389;DHT22;4734;52.778;6.798;2023-10-09T11:27:57;17.30;99.90
9389;DHT22;4734;52.778;6.798;2023-10-09T11:31:06;17.40;99.90
9389;DHT22;4734;52.778;6.798;2023-10-09T11:33:52;17.40;99.90
9389;DHT22;4734;52.778;6.798;2023-10-09T11:36:38;17.40;99.90
9389;DHT22;4734;52.778;6.798;2023-10-09T11:39:27;17.40;99.90
9389;DHT22;4734;52.778;6.798;2023-10-09T11:42:23;17.40;99.90
9389;DHT22;4734;52.778;6.798;2023-10-09T11:45:23;17.50;99.90
9389;DHT22;4734;52.778;6.798;2023-10-09T11:48:19;17.50;99.90
9389;DHT22;4734;52.778;6.798;2023-10-09T11:51:12;17.50;99.90
9389;DHT22;4734;52.778;6.798;2023-10-09T11:54:04;17.50;99.90
9389;DHT22;4734;52.778;6.798;2023-10-09T11:56:52;17.50;99.90
9389;DHT22;4734;52.778;6.798;2023-10-09T11:59:40;17.50;99.90
9389;DHT22;4734;52.778;6.798;2023-10-09T12:02:26;17.60;99.90
9389;DHT22;4734;52.778;6.798;2023-10-09T12:05:12;17.60;99.90
9389;DHT22;4734;52.778;6.798;2023-10-09T12:08:02;17.60;99.90
9389;DHT22;4734;52.778;6.798;2023-10-09T12:10:55;17.60;99.90
9389;DHT22;4734;52.778;6.798;2023-10-09T12:13:40;17.60;99.90
9389;DHT22;4734;52.778;6.798;2023-10-09T12:16:28;17.70;99.90
9389;DHT22;4734;52.778;6.798;2023-10-09T12:19:17;17.70;99.90
9389;DHT22;4734;52.778;6.798;2023-10-09T12:22:03;17.70;99.90
9389;DHT22;4734;52.778;6.798;2023-10-09T12:27:35;17.70;99.90
9389;DHT22;4734;52.778;6.798;2023-10-09T12:30:20;17.80;99.90
9389;DHT22;4734;52.778;6.798;2023-10-09T12:33:12;17.80;99.90
9389;DHT22;4734;52.778;6.798;2023-10-09T12:35:59;17.80;99.90
9389;DHT22;4734;52.778;6.798;2023-10-09T12:38:46;17.80;99.90
9389;DHT22;4734;52.778;6.798;2023-10-09T12:41:35;17.80;99.90
9389;DHT22;4734;52.778;6.798;2023-10-09T12:44:25;17.80;99.90
9389;DHT22;4734;52.778;6.798;2023-10-09T12:47:11;17.80;99.90
9389;DHT22;4734;52.778;6.798;2023-10-09T12:49:58;17.80;99.90
9389;DHT22;4734;52.778;6.798;2023-10-09T12:52:43;17.90;99.90
9389;DHT22;4734;52.778;6.798;2023-10-09T12:55:35;17.90;99.90
9389;DHT22;4734;52.778;6.798;2023-10-09T12:58:22;17.90;99.90
9389;DHT22;4734;52.778;6.798;2023-10-09T13:01:10;17.90;99.90
9389;DHT22;4734;52.778;6.798;2023-10-09T13:03:56;17.90;99.90
9389;DHT22;4734;52.778;6.798;2023-10-09T13:06:45;17.90;99.90
9389;DHT22;4734;52.778;6.798;2023-10-09T13:09:31;18.00;99.90
9389;DHT22;4734;52.778;6.798;2023-10-09T13:12:19;18.00;99.90
9389;DHT22;4734;52.778;6.798;2023-10-09T13:15:06;18.10;99.90
9389;DHT22;4734;52.778;6.798;2023-10-09T13:17:53;18.10;99.90
9389;DHT22;4734;52.778;6.798;2023-10-09T13:20:39;18.10;99.90
9389;DHT22;4734;52.778;6.798;2023-10-09T13:23:26;18.20;99.90
9389;DHT22;4734;52.778;6.798;2023-10-09T13:26:22;18.20;99.90
9389;DHT22;4734;52.778;6.798;2023-10-09T13:29:12;18.20;99.90
9389;DHT22;4734;52.778;6.798;2023-10-09T13:31:58;18.20;99.90
9389;DHT22;4734;52.778;6.798;2023-10-09T13:34:47;18.20;99.90
9389;DHT22;4734;52.778;6.798;2023-10-09T13:37:34;18.30;99.90
9389;DHT22;4734;52.778;6.798;2023-10-09T13:40:22;18.30;99.90
9389;DHT22;4734;52.778;6.798;2023-10-09T13:43:12;18.40;99.90
9389;DHT22;4734;52.778;6.798;2023-10-09T13:46:00;18.40;99.90
9389;DHT22;4734;52.778;6.798;2023-10-09T13:48:48;18.40;99.90
9389;DHT22;4734;52.778;6.798;2023-10-09T13:51:33;18.40;99.90
9389;DHT22;4734;52.778;6.798;2023-10-09T13:54:19;18.50;99.90
9389;DHT22;4734;52.778;6.798;2023-10-09T13:57:14;18.50;99.90
9389;DHT22;4734;52.778;6.798;2023-10-09T13:59:59;18.50;99.90
9389;DHT22;4734;52.778;6.798;2023-10-09T14:02:45;18.60;99.90
9389;DHT22;4734;52.778;6.798;2023-10-09T14:05:30;18.60;99.90
9389;DHT22;4734;52.778;6.798;2023-10-09T14:08:19;18.60;99.90
9389;DHT22;4734;52.778;6.798;2023-10-09T14:11:06;18.60;99.90
9389;DHT22;4734;52.778;6.798;2023-10-09T14:13:58;18.60;99.90
9389;DHT22;4734;52.778;6.798;2023-10-09T14:16:45;18.60;99.90
9389;DHT22;4734;52.778;6.798;2023-10-09T14:19:30;18.70;99.90
9389;DHT22;4734;52.778;6.798;2023-10-09T14:22:19;18.70;99.90
9389;DHT22;4734;52.778;6.798;2023-10-09T14:25:06;18.70;99.90
9389;DHT22;4734;52.778;6.798;2023-10-09T14:27:59;18.70;99.90
9389;DHT22;4734;52.778;6.798;2023-10-09T14:30:46;18.70;99.90
9389;DHT22;4734;52.778;6.798;2023-10-09T14:33:38;18.70;99.90
9389;DHT22;4734;52.778;6.798;2023-10-09T14:36:25;18.70;99.90
9389;DHT22;4734;52.778;6.798;2023-10-09T14:39:17;18.70;99.90
9389;DHT22;4734;52.778;6.798;2023-10-09T14:42:04;18.70;99.90
9389;DHT22;4734;52.778;6.798;2023-10-09T14:44:54;18.70;99.90
9389;DHT22;4734;52.778;6.798;2023-10-09T14:47:41;18.70;99.90
9389;DHT22;4734;52.778;6.798;2023-10-09T14:50:27;18.70;99.90
9389;DHT22;4734;52.778;6.798;2023-10-09T14:53:12;18.70;99.90
9389;DHT22;4734;52.778;6.798;2023-10-09T14:55:59;18.70;99.90
9389;DHT22;4734;52.778;6.798;2023-10-09T14:58:47;18.70;99.90
9389;DHT22;4734;52.778;6.798;2023-10-09T15:01:34;18.70;99.90
9389;DHT22;4734;52.778;6.798;2023-10-09T15:04:24;18.70;99.90
9389;DHT22;4734;52.778;6.798;2023-10-09T15:07:10;18.70;99.90
9389;DHT22;4734;52.778;6.798;2023-10-09T15:09:59;18.70;99.90
9389;DHT22;4734;52.778;6.798;2023-10-09T15:12:48;18.70;99.90
9389;DHT22;4734;52.778;6.798;2023-10-09T15:15:33;18.70;99.90
9389;DHT22;4734;52.778;6.798;2023-10-09T15:18:19;18.60;99.90
9389;DHT22;4734;52.778;6.798;2023-10-09T15:21:07;18.60;99.90
9389;DHT22;4734;52.778;6.798;2023-10-09T15:23:54;18.60;99.90
9389;DHT22;4734;52.778;6.798;2023-10-09T15:26:39;18.60;99.90
9389;DHT22;4734;52.778;6.798;2023-10-09T15:29:25;18.60;99.90
9389;DHT22;4734;52.778;6.798;2023-10-09T15:32:14;18.60;99.90
9389;DHT22;4734;52.778;6.798;2023-10-09T15:35:07;18.60;99.90
9389;DHT22;4734;52.778;6.798;2023-10-09T15:37:55;18.50;99.90
9389;DHT22;4734;52.778;6.798;2023-10-09T15:40:40;18.50;99.90
9389;DHT22;4734;52.778;6.798;2023-10-09T15:43:27;18.50;99.90
9389;DHT22;4734;52.778;6.798;2023-10-09T15:46:13;18.50;99.90
9389;DHT22;4734;52.778;6.798;2023-10-09T15:48:59;18.50;99.90
9389;DHT22;4734;52.778;6.798;2023-10-09T15:51:46;18.40;99.90
9389;DHT22;4734;52.778;6.798;2023-10-09T15:54:32;18.50;99.90
9389;DHT22;4734;52.778;6.798;2023-10-09T15:57:18;18.40;99.90
9389;DHT22;4734;52.778;6.798;2023-10-09T16:00:04;18.40;99.90
9389;DHT22;4734;52.778;6.798;2023-10-09T16:02:57;18.40;99.90
9389;DHT22;4734;52.778;6.798;2023-10-09T16:05:44;18.40;99.90
9389;DHT22;4734;52.778;6.798;2023-10-09T16:08:31;18.40;99.90
9389;DHT22;4734;52.778;6.798;2023-10-09T16:11:19;18.30;99.90
9389;DHT22;4734;52.778;6.798;2023-10-09T16:14:07;18.30;99.90
9389;DHT22;4734;52.778;6.798;2023-10-09T16:16:54;18.30;99.90
9389;DHT22;4734;52.778;6.798;2023-10-09T16:19:40;18.30;99.90
9389;DHT22;4734;52.778;6.798;2023-10-09T16:22:26;18.20;99.90
9389;DHT22;4734;52.778;6.798;2023-10-09T16:25:12;18.20;99.90
9389;DHT22;4734;52.778;6.798;2023-10-09T16:28:03;18.20;99.90
9389;DHT22;4734;52.778;6.798;2023-10-09T16:30:49;18.20;99.90
9389;DHT22;4734;52.778;6.798;2023-10-09T16:33:34;18.20;99.90
9389;DHT22;4734;52.778;6.798;2023-10-09T16:36:23;18.10;99.90
9389;DHT22;4734;52.778;6.798;2023-10-09T16:39:08;18.10;99.90
9389;DHT22;4734;52.778;6.798;2023-10-09T16:42:02;18.10;99.90
9389;DHT22;4734;52.778;6.798;2023-10-09T16:44:50;18.00;99.90
9389;DHT22;4734;52.778;6.798;2023-10-09T16:47:35;18.10;99.90
9389;DHT22;4734;52.778;6.798;2023-10-09T16:50:22;18.00;99.90
9389;DHT22;4734;52.778;6.798;2023-10-09T16:53:12;18.00;99.90
9389;DHT22;4734;52.778;6.798;2023-10-09T16:55:57;18.00;99.90
9389;DHT22;4734;52.778;6.798;2023-10-09T16:58:53;18.00;99.90
9389;DHT22;4734;52.778;6.798;2023-10-09T17:01:40;17.90;99.90
9389;DHT22;4734;52.778;6.798;2023-10-09T17:04:25;17.90;99.90
9389;DHT22;4734;52.778;6.798;2023-10-09T17:07:11;17.90;99.90
9389;DHT22;4734;52.778;6.798;2023-10-09T17:09:59;17.90;99.90
9389;DHT22;4734;52.778;6.798;2023-10-09T17:12:44;17.90;99.90
9389;DHT22;4734;52.778;6.798;2023-10-09T17:15:33;17.80;99.90
9389;DHT22;4734;52.778;6.798;2023-10-09T17:23:55;17.80;99.90
9389;DHT22;4734;52.778;6.798;2023-10-09T17:26:42;17.80;99.90
9389;DHT22;4734;52.778;6.798;2023-10-09T17:29:30;17.70;99.90
9389;DHT22;4734;52.778;6.798;2023-10-09T17:32:16;17.70;99.90
9389;DHT22;4734;52.778;6.798;2023-10-09T17:35:04;17.70;99.90
9389;DHT22;4734;52.778;6.798;2023-10-09T17:37:52;17.70;99.90
9389;DHT22;4734;52.778;6.798;2023-10-09T17:40:44;17.60;99.90
9389;DHT22;4734;52.778;6.798;2023-10-09T17:43:32;17.60;99.90
9389;DHT22;4734;52.778;6.798;2023-10-09T17:46:18;17.60;99.90
9389;DHT22;4734;52.778;6.798;2023-10-09T17:49:03;17.60;99.90
9389;DHT22;4734;52.778;6.798;2023-10-09T17:51:52;17.60;99.90
9389;DHT22;4734;52.778;6.798;2023-10-09T17:54:38;17.60;99.90
9389;DHT22;4734;52.778;6.798;2023-10-09T17:57:23;17.50;99.90
9389;DHT22;4734;52.778;6.798;2023-10-09T18:00:09;17.50;99.90
9389;DHT22;4734;52.778;6.798;2023-10-09T18:03:06;17.50;99.90
9389;DHT22;4734;52.778;6.798;2023-10-09T18:05:52;17.50;99.90
9389;DHT22;4734;52.778;6.798;2023-10-09T18:08:39;17.50;99.90
9389;DHT22;4734;52.778;6.798;2023-10-09T18:11:25;17.40;99.90
9389;DHT22;4734;52.778;6.798;2023-10-09T18:14:11;17.50;99.90
9389;DHT22;4734;52.778;6.798;2023-10-09T18:16:57;17.40;99.90
9389;DHT22;4734;52.778;6.798;2023-10-09T18:19:44;17.40;99.90
9389;DHT22;4734;52.778;6.798;2023-10-09T18:22:30;17.40;99.90
9389;DHT22;4734;52.778;6.798;2023-10-09T18:25:17;17.40;99.90
9389;DHT22;4734;52.778;6.798;2023-10-09T18:28:03;17.40;99.90
9389;DHT22;4734;52.778;6.798;2023-10-09T18:30:49;17.30;99.90
9389;DHT22;4734;52.778;6.798;2023-10-09T18:33:36;17.30;99.90
9389;DHT22;4734;52.778;6.798;2023-10-09T18:36:21;17.30;99.90
9389;DHT22;4734;52.778;6.798;2023-10-09T18:39:07;17.30;99.90
9389;DHT22;4734;52.778;6.798;2023-10-09T18:41:55;17.30;99.90
9389;DHT22;4734;52.778;6.798;2023-10-09T18:44:40;17.30;99.90
9389;DHT22;4734;52.778;6.798;2023-10-09T18:47:26;17.20;99.90